sensor_id;sensor_type;location;lat;lon;timestamp;P1;durP1;ratioP1;P2;durP2;ratioP2
33495;SDS011;19836;55.812;37.560;2023-02-08T00:00:32;10.45;;;6.50;;
33495;SDS011;19836;55.812;37.560;2023-02-08T00:03:00;9.50;;;6.68;;
33495;SDS011;19836;55.812;37.560;2023-02-08T00:05:29;9.40;;;6.40;;
33495;SDS011;19836;55.812;37.560;2023-02-08T00:07:56;11.82;;;7.40;;
33495;SDS011;19836;55.812;37.560;2023-02-08T00:10:22;9.95;;;6.78;;
33495;SDS011;19836;55.812;37.560;2023-02-08T00:12:48;9.25;;;6.70;;
33495;SDS011;19836;55.812;37.560;2023-02-08T00:15:17;6.97;;;4.35;;
33495;SDS011;19836;55.812;37.560;2023-02-08T00:17:44;6.13;;;4.22;;
33495;SDS011;19836;55.812;37.560;2023-02-08T00:20:10;9.93;;;6.70;;
33495;SDS011;19836;55.812;37.560;2023-02-08T00:22:38;6.88;;;4.22;;
33495;SDS011;19836;55.812;37.560;2023-02-08T00:25:04;6.78;;;3.95;;
33495;SDS011;19836;55.812;37.560;2023-02-08T00:27:32;6.38;;;4.38;;
33495;SDS011;19836;55.812;37.560;2023-02-08T00:30:01;9.90;;;6.70;;
33495;SDS011;19836;55.812;37.560;2023-02-08T00:32:29;7.45;;;4.70;;
33495;SDS011;19836;55.812;37.560;2023-02-08T00:34:56;10.15;;;6.88;;
33495;SDS011;19836;55.812;37.560;2023-02-08T00:37:22;10.57;;;6.45;;
33495;SDS011;19836;55.812;37.560;2023-02-08T00:39:48;8.80;;;5.65;;
33495;SDS011;19836;55.812;37.560;2023-02-08T00:42:15;11.88;;;7.38;;
33495;SDS011;19836;55.812;37.560;2023-02-08T00:44:41;9.65;;;6.10;;
33495;SDS011;19836;55.812;37.560;2023-02-08T00:47:08;9.95;;;6.10;;
33495;SDS011;19836;55.812;37.560;2023-02-08T00:49:34;10.35;;;7.07;;
33495;SDS011;19836;55.812;37.560;2023-02-08T00:52:01;12.30;;;7.53;;
33495;SDS011;19836;55.812;37.560;2023-02-08T00:54:30;8.98;;;6.35;;
33495;SDS011;19836;55.812;37.560;2023-02-08T00:56:57;9.45;;;6.57;;
33495;SDS011;19836;55.812;37.560;2023-02-08T00:59:53;10.43;;;6.03;;
33495;SDS011;19836;55.812;37.560;2023-02-08T01:02:29;7.68;;;4.43;;
33495;SDS011;19836;55.812;37.560;2023-02-08T01:05:03;10.40;;;6.05;;
33495;SDS011;19836;55.812;37.560;2023-02-08T01:07:31;7.10;;;3.92;;
33495;SDS011;19836;55.812;37.560;2023-02-08T01:10:08;8.75;;;6.72;;
33495;SDS011;19836;55.812;37.560;2023-02-08T01:16:08;7.95;;;5.00;;
33495;SDS011;19836;55.812;37.560;2023-02-08T01:18:37;8.25;;;4.88;;
33495;SDS011;19836;55.812;37.560;2023-02-08T01:21:07;8.98;;;5.85;;
33495;SDS011;19836;55.812;37.560;2023-02-08T01:23:35;10.90;;;6.55;;
33495;SDS011;19836;55.812;37.560;2023-02-08T01:26:04;12.10;;;7.28;;
33495;SDS011;19836;55.812;37.560;2023-02-08T01:28:31;11.75;;;7.70;;
33495;SDS011;19836;55.812;37.560;2023-02-08T01:30:58;13.70;;;8.30;;
33495;SDS011;19836;55.812;37.560;2023-02-08T01:33:24;13.40;;;7.88;;
33495;SDS011;19836;55.812;37.560;2023-02-08T01:35:51;8.90;;;4.97;;
33495;SDS011;19836;55.812;37.560;2023-02-08T01:38:19;10.35;;;6.65;;
33495;SDS011;19836;55.812;37.560;2023-02-08T01:43:25;10.65;;;6.13;;
33495;SDS011;19836;55.812;37.560;2023-02-08T01:45:57;8.35;;;5.80;;
33495;SDS011;19836;55.812;37.560;2023-02-08T01:48:30;9.60;;;6.22;;
33495;SDS011;19836;55.812;37.560;2023-02-08T01:51:06;9.27;;;6.15;;
33495;SDS011;19836;55.812;37.560;2023-02-08T01:53:37;6.82;;;4.95;;
33495;SDS011;19836;55.812;37.560;2023-02-08T01:56:07;7.32;;;4.65;;
33495;SDS011;19836;55.812;37.560;2023-02-08T02:13:20;5.82;;;3.90;;
33495;SDS011;19836;55.812;37.560;2023-02-08T02:15:49;8.38;;;4.95;;
33495;SDS011;19836;55.812;37.560;2023-02-08T02:18:21;8.23;;;5.65;;
33495;SDS011;19836;55.812;37.560;2023-02-08T02:32:40;8.18;;;5.50;;
33495;SDS011;19836;55.812;37.560;2023-02-08T02:35:07;8.32;;;6.05;;
33495;SDS011;19836;55.812;37.560;2023-02-08T02:37:47;7.15;;;5.28;;
33495;SDS011;19836;55.812;37.560;2023-02-08T02:43:23;8.00;;;5.70;;
33495;SDS011;19836;55.812;37.560;2023-02-08T02:55:46;8.45;;;5.60;;
33495;SDS011;19836;55.812;37.560;2023-02-08T02:58:19;8.00;;;4.88;;
33495;SDS011;19836;55.812;37.560;2023-02-08T03:00:56;5.13;;;3.38;;
33495;SDS011;19836;55.812;37.560;2023-02-08T03:03:25;9.18;;;5.75;;
33495;SDS011;19836;55.812;37.560;2023-02-08T03:05:55;3.10;;;2.20;;
33495;SDS011;19836;55.812;37.560;2023-02-08T03:11:36;8.75;;;5.63;;
33495;SDS011;19836;55.812;37.560;2023-02-08T03:19:34;9.50;;;5.40;;
33495;SDS011;19836;55.812;37.560;2023-02-08T03:24:53;6.90;;;4.57;;
33495;SDS011;19836;55.812;37.560;2023-02-08T03:29:56;7.03;;;4.25;;
33495;SDS011;19836;55.812;37.560;2023-02-08T03:32:50;6.00;;;3.90;;
33495;SDS011;19836;55.812;37.560;2023-02-08T03:35:18;10.05;;;5.20;;
33495;SDS011;19836;55.812;37.560;2023-02-08T03:37:57;3.85;;;2.63;;
33495;SDS011;19836;55.812;37.560;2023-02-08T03:40:35;6.70;;;4.43;;
33495;SDS011;19836;55.812;37.560;2023-02-08T03:43:08;6.88;;;4.93;;
33495;SDS011;19836;55.812;37.560;2023-02-08T03:45:45;6.82;;;4.63;;
33495;SDS011;19836;55.812;37.560;2023-02-08T03:48:17;7.88;;;5.20;;
33495;SDS011;19836;55.812;37.560;2023-02-08T03:50:47;5.25;;;3.25;;
33495;SDS011;19836;55.812;37.560;2023-02-08T03:53:18;6.45;;;4.32;;
33495;SDS011;19836;55.812;37.560;2023-02-08T03:55:48;5.20;;;3.15;;
33495;SDS011;19836;55.812;37.560;2023-02-08T03:58:22;6.82;;;4.28;;
33495;SDS011;19836;55.812;37.560;2023-02-08T04:00:58;7.88;;;4.97;;
33495;SDS011;19836;55.812;37.560;2023-02-08T04:03:32;4.93;;;3.60;;
33495;SDS011;19836;55.812;37.560;2023-02-08T04:06:02;6.85;;;4.65;;
33495;SDS011;19836;55.812;37.560;2023-02-08T04:08:29;6.78;;;4.20;;
33495;SDS011;19836;55.812;37.560;2023-02-08T04:10:56;6.57;;;4.40;;
33495;SDS011;19836;55.812;37.560;2023-02-08T04:13:23;6.95;;;4.65;;
33495;SDS011;19836;55.812;37.560;2023-02-08T04:15:49;8.27;;;5.25;;
33495;SDS011;19836;55.812;37.560;2023-02-08T04:18:20;5.95;;;3.90;;
33495;SDS011;19836;55.812;37.560;2023-02-08T04:20:47;5.25;;;3.47;;
33495;SDS011;19836;55.812;37.560;2023-02-08T04:23:13;6.18;;;3.83;;
33495;SDS011;19836;55.812;37.560;2023-02-08T04:25:43;8.15;;;5.32;;
33495;SDS011;19836;55.812;37.560;2023-02-08T04:28:09;7.90;;;5.18;;
33495;SDS011;19836;55.812;37.560;2023-02-08T04:30:35;7.53;;;4.68;;
33495;SDS011;19836;55.812;37.560;2023-02-08T04:33:01;7.68;;;5.07;;
33495;SDS011;19836;55.812;37.560;2023-02-08T04:35:28;4.63;;;2.80;;
33495;SDS011;19836;55.812;37.560;2023-02-08T04:37:55;9.07;;;5.45;;
33495;SDS011;19836;55.812;37.560;2023-02-08T04:40:21;6.97;;;4.85;;
33495;SDS011;19836;55.812;37.560;2023-02-08T04:42:48;5.68;;;3.92;;
33495;SDS011;19836;55.812;37.560;2023-02-08T04:45:14;7.32;;;4.53;;
33495;SDS011;19836;55.812;37.560;2023-02-08T04:47:41;4.95;;;3.67;;
33495;SDS011;19836;55.812;37.560;2023-02-08T04:50:08;7.75;;;5.28;;
33495;SDS011;19836;55.812;37.560;2023-02-08T04:52:34;7.93;;;5.28;;
33495;SDS011;19836;55.812;37.560;2023-02-08T04:55:01;8.15;;;5.32;;
33495;SDS011;19836;55.812;37.560;2023-02-08T04:57:28;8.20;;;4.65;;
33495;SDS011;19836;55.812;37.560;2023-02-08T04:59:54;8.43;;;5.18;;
33495;SDS011;19836;55.812;37.560;2023-02-08T05:02:20;7.13;;;4.60;;
33495;SDS011;19836;55.812;37.560;2023-02-08T05:04:47;7.85;;;4.47;;
33495;SDS011;19836;55.812;37.560;2023-02-08T05:07:13;7.90;;;5.20;;
33495;SDS011;19836;55.812;37.560;2023-02-08T05:09:38;8.05;;;5.15;;
33495;SDS011;19836;55.812;37.560;2023-02-08T05:12:04;7.47;;;4.50;;
33495;SDS011;19836;55.812;37.560;2023-02-08T05:21:32;8.80;;;4.88;;
33495;SDS011;19836;55.812;37.560;2023-02-08T05:23:58;10.02;;;5.90;;
33495;SDS011;19836;55.812;37.560;2023-02-08T05:26:25;7.07;;;4.78;;
33495;SDS011;19836;55.812;37.560;2023-02-08T05:28:51;7.78;;;4.65;;
33495;SDS011;19836;55.812;37.560;2023-02-08T05:31:21;8.85;;;5.10;;
33495;SDS011;19836;55.812;37.560;2023-02-08T05:33:49;6.93;;;4.30;;
33495;SDS011;19836;55.812;37.560;2023-02-08T05:36:17;8.85;;;5.57;;
33495;SDS011;19836;55.812;37.560;2023-02-08T05:38:44;8.13;;;5.25;;
33495;SDS011;19836;55.812;37.560;2023-02-08T05:41:16;9.68;;;5.53;;
33495;SDS011;19836;55.812;37.560;2023-02-08T05:43:42;7.55;;;4.72;;
33495;SDS011;19836;55.812;37.560;2023-02-08T05:46:08;9.77;;;5.32;;
33495;SDS011;19836;55.812;37.560;2023-02-08T05:48:34;9.27;;;5.28;;
33495;SDS011;19836;55.812;37.560;2023-02-08T05:51:00;9.60;;;5.05;;
33495;SDS011;19836;55.812;37.560;2023-02-08T05:53:26;12.00;;;5.55;;
33495;SDS011;19836;55.812;37.560;2023-02-08T05:55:52;10.75;;;5.38;;
33495;SDS011;19836;55.812;37.560;2023-02-08T05:58:18;5.57;;;3.60;;
33495;SDS011;19836;55.812;37.560;2023-02-08T06:00:44;8.65;;;5.00;;
33495;SDS011;19836;55.812;37.560;2023-02-08T06:03:10;12.30;;;6.68;;
33495;SDS011;19836;55.812;37.560;2023-02-08T06:05:36;10.70;;;6.57;;
33495;SDS011;19836;55.812;37.560;2023-02-08T06:08:04;11.55;;;6.70;;
33495;SDS011;19836;55.812;37.560;2023-02-08T06:10:30;10.13;;;6.53;;
33495;SDS011;19836;55.812;37.560;2023-02-08T06:12:56;9.13;;;5.93;;
33495;SDS011;19836;55.812;37.560;2023-02-08T06:15:22;11.80;;;7.40;;
33495;SDS011;19836;55.812;37.560;2023-02-08T06:17:49;8.05;;;5.15;;
33495;SDS011;19836;55.812;37.560;2023-02-08T06:20:15;8.45;;;4.85;;
33495;SDS011;19836;55.812;37.560;2023-02-08T06:22:41;11.73;;;6.40;;
33495;SDS011;19836;55.812;37.560;2023-02-08T06:25:07;10.98;;;6.50;;
33495;SDS011;19836;55.812;37.560;2023-02-08T06:27:37;9.10;;;6.22;;
33495;SDS011;19836;55.812;37.560;2023-02-08T06:30:03;10.57;;;6.38;;
33495;SDS011;19836;55.812;37.560;2023-02-08T06:32:30;9.85;;;5.72;;
33495;SDS011;19836;55.812;37.560;2023-02-08T06:34:56;9.93;;;5.57;;
33495;SDS011;19836;55.812;37.560;2023-02-08T06:37:22;12.65;;;6.22;;
33495;SDS011;19836;55.812;37.560;2023-02-08T06:39:47;11.05;;;6.70;;
33495;SDS011;19836;55.812;37.560;2023-02-08T06:42:13;8.80;;;5.30;;
33495;SDS011;19836;55.812;37.560;2023-02-08T06:44:39;8.10;;;4.85;;
33495;SDS011;19836;55.812;37.560;2023-02-08T06:49:58;9.35;;;5.57;;
33495;SDS011;19836;55.812;37.560;2023-02-08T06:52:24;10.98;;;6.65;;
33495;SDS011;19836;55.812;37.560;2023-02-08T06:54:51;12.55;;;8.18;;
33495;SDS011;19836;55.812;37.560;2023-02-08T06:57:17;6.72;;;4.35;;
33495;SDS011;19836;55.812;37.560;2023-02-08T06:59:44;10.60;;;6.57;;
33495;SDS011;19836;55.812;37.560;2023-02-08T07:02:14;11.10;;;7.00;;
33495;SDS011;19836;55.812;37.560;2023-02-08T07:04:43;10.98;;;6.45;;
33495;SDS011;19836;55.812;37.560;2023-02-08T07:07:13;9.70;;;6.85;;
33495;SDS011;19836;55.812;37.560;2023-02-08T07:09:40;12.38;;;7.25;;
33495;SDS011;19836;55.812;37.560;2023-02-08T07:12:07;9.52;;;5.70;;
33495;SDS011;19836;55.812;37.560;2023-02-08T07:14:34;10.23;;;5.90;;
33495;SDS011;19836;55.812;37.560;2023-02-08T07:17:01;12.10;;;7.25;;
33495;SDS011;19836;55.812;37.560;2023-02-08T07:19:28;10.65;;;6.35;;
33495;SDS011;19836;55.812;37.560;2023-02-08T07:21:54;5.85;;;3.75;;
33495;SDS011;19836;55.812;37.560;2023-02-08T07:24:20;5.55;;;3.53;;
33495;SDS011;19836;55.812;37.560;2023-02-08T07:26:46;10.73;;;6.70;;
33495;SDS011;19836;55.812;37.560;2023-02-08T07:29:12;11.57;;;7.03;;
33495;SDS011;19836;55.812;37.560;2023-02-08T07:31:38;7.22;;;3.42;;
33495;SDS011;19836;55.812;37.560;2023-02-08T07:34:04;10.70;;;5.93;;
33495;SDS011;19836;55.812;37.560;2023-02-08T07:36:33;13.30;;;7.18;;
33495;SDS011;19836;55.812;37.560;2023-02-08T07:39:00;11.88;;;6.93;;
33495;SDS011;19836;55.812;37.560;2023-02-08T07:41:26;12.48;;;7.47;;
33495;SDS011;19836;55.812;37.560;2023-02-08T07:43:52;11.25;;;6.25;;
33495;SDS011;19836;55.812;37.560;2023-02-08T07:46:20;6.05;;;3.17;;
33495;SDS011;19836;55.812;37.560;2023-02-08T07:48:46;7.70;;;3.28;;
33495;SDS011;19836;55.812;37.560;2023-02-08T07:51:17;9.57;;;5.43;;
33495;SDS011;19836;55.812;37.560;2023-02-08T07:53:43;13.18;;;5.88;;
33495;SDS011;19836;55.812;37.560;2023-02-08T07:56:09;10.90;;;5.63;;
33495;SDS011;19836;55.812;37.560;2023-02-08T07:58:35;11.40;;;7.13;;
33495;SDS011;19836;55.812;37.560;2023-02-08T08:01:02;12.48;;;7.03;;
33495;SDS011;19836;55.812;37.560;2023-02-08T08:03:27;11.50;;;6.18;;
33495;SDS011;19836;55.812;37.560;2023-02-08T08:05:53;7.47;;;5.07;;
33495;SDS011;19836;55.812;37.560;2023-02-08T08:08:19;10.60;;;6.35;;
33495;SDS011;19836;55.812;37.560;2023-02-08T08:10:45;6.85;;;3.45;;
33495;SDS011;19836;55.812;37.560;2023-02-08T08:13:11;7.95;;;3.67;;
33495;SDS011;19836;55.812;37.560;2023-02-08T08:15:38;9.75;;;6.15;;
33495;SDS011;19836;55.812;37.560;2023-02-08T08:18:05;9.20;;;6.50;;
33495;SDS011;19836;55.812;37.560;2023-02-08T08:20:31;8.43;;;5.60;;
33495;SDS011;19836;55.812;37.560;2023-02-08T08:22:57;10.48;;;6.82;;
33495;SDS011;19836;55.812;37.560;2023-02-08T08:25:23;8.07;;;4.38;;
33495;SDS011;19836;55.812;37.560;2023-02-08T08:27:49;11.70;;;6.38;;
33495;SDS011;19836;55.812;37.560;2023-02-08T08:30:15;12.70;;;6.63;;
33495;SDS011;19836;55.812;37.560;2023-02-08T08:32:42;11.15;;;6.32;;
33495;SDS011;19836;55.812;37.560;2023-02-08T08:35:08;10.48;;;5.65;;
33495;SDS011;19836;55.812;37.560;2023-02-08T08:37:34;9.60;;;6.70;;
33495;SDS011;19836;55.812;37.560;2023-02-08T08:40:02;8.85;;;5.82;;
33495;SDS011;19836;55.812;37.560;2023-02-08T08:42:29;11.10;;;6.55;;
33495;SDS011;19836;55.812;37.560;2023-02-08T08:44:55;9.45;;;6.25;;
33495;SDS011;19836;55.812;37.560;2023-02-08T08:47:20;8.63;;;4.90;;
33495;SDS011;19836;55.812;37.560;2023-02-08T08:49:46;5.93;;;3.65;;
33495;SDS011;19836;55.812;37.560;2023-02-08T08:52:12;9.98;;;5.55;;
33495;SDS011;19836;55.812;37.560;2023-02-08T08:54:38;9.75;;;5.38;;
33495;SDS011;19836;55.812;37.560;2023-02-08T08:57:04;8.73;;;5.55;;
33495;SDS011;19836;55.812;37.560;2023-02-08T08:59:31;12.43;;;6.47;;
33495;SDS011;19836;55.812;37.560;2023-02-08T09:01:57;10.70;;;5.38;;
33495;SDS011;19836;55.812;37.560;2023-02-08T09:04:23;9.15;;;6.40;;
33495;SDS011;19836;55.812;37.560;2023-02-08T09:06:49;11.35;;;6.10;;
33495;SDS011;19836;55.812;37.560;2023-02-08T09:09:16;9.60;;;6.30;;
33495;SDS011;19836;55.812;37.560;2023-02-08T09:11:43;10.40;;;6.75;;
33495;SDS011;19836;55.812;37.560;2023-02-08T09:14:09;9.05;;;6.38;;
33495;SDS011;19836;55.812;37.560;2023-02-08T09:16:35;7.53;;;4.35;;
33495;SDS011;19836;55.812;37.560;2023-02-08T09:19:01;7.57;;;4.40;;
33495;SDS011;19836;55.812;37.560;2023-02-08T09:21:30;9.23;;;5.68;;
33495;SDS011;19836;55.812;37.560;2023-02-08T09:23:56;9.98;;;5.35;;
33495;SDS011;19836;55.812;37.560;2023-02-08T09:26:22;11.98;;;6.30;;
33495;SDS011;19836;55.812;37.560;2023-02-08T09:28:50;8.85;;;5.60;;
33495;SDS011;19836;55.812;37.560;2023-02-08T09:31:18;8.93;;;5.15;;
33495;SDS011;19836;55.812;37.560;2023-02-08T09:33:46;8.68;;;4.85;;
33495;SDS011;19836;55.812;37.560;2023-02-08T09:36:13;9.52;;;4.32;;
33495;SDS011;19836;55.812;37.560;2023-02-08T09:38:40;9.00;;;5.13;;
33495;SDS011;19836;55.812;37.560;2023-02-08T09:41:11;11.48;;;6.20;;
33495;SDS011;19836;55.812;37.560;2023-02-08T09:44:04;11.13;;;6.82;;
33495;SDS011;19836;55.812;37.560;2023-02-08T09:47:09;10.98;;;6.45;;
33495;SDS011;19836;55.812;37.560;2023-02-08T09:49:47;11.73;;;6.18;;
33495;SDS011;19836;55.812;37.560;2023-02-08T09:52:23;8.40;;;4.72;;
33495;SDS011;19836;55.812;37.560;2023-02-08T09:54:58;7.53;;;4.38;;
33495;SDS011;19836;55.812;37.560;2023-02-08T09:57:30;8.65;;;5.13;;
33495;SDS011;19836;55.812;37.560;2023-02-08T10:02:31;9.13;;;6.07;;
33495;SDS011;19836;55.812;37.560;2023-02-08T10:07:24;7.35;;;4.88;;
33495;SDS011;19836;55.812;37.560;2023-02-08T10:09:52;10.50;;;6.18;;
33495;SDS011;19836;55.812;37.560;2023-02-08T10:20:44;8.38;;;5.15;;
33495;SDS011;19836;55.812;37.560;2023-02-08T10:23:33;8.15;;;5.30;;
33495;SDS011;19836;55.812;37.560;2023-02-08T10:26:27;7.40;;;4.93;;
33495;SDS011;19836;55.812;37.560;2023-02-08T10:36:53;5.85;;;4.55;;
33495;SDS011;19836;55.812;37.560;2023-02-08T10:39:25;4.15;;;3.42;;
33495;SDS011;19836;55.812;37.560;2023-02-08T10:41:55;6.78;;;5.13;;
33495;SDS011;19836;55.812;37.560;2023-02-08T10:52:22;7.78;;;5.05;;
33495;SDS011;19836;55.812;37.560;2023-02-08T10:54:48;5.47;;;4.00;;
33495;SDS011;19836;55.812;37.560;2023-02-08T10:57:19;7.75;;;5.63;;
33495;SDS011;19836;55.812;37.560;2023-02-08T10:59:54;9.68;;;5.38;;
33495;SDS011;19836;55.812;37.560;2023-02-08T11:02:30;7.13;;;5.78;;
33495;SDS011;19836;55.812;37.560;2023-02-08T11:05:03;6.93;;;5.28;;
33495;SDS011;19836;55.812;37.560;2023-02-08T11:07:32;7.65;;;5.40;;
33495;SDS011;19836;55.812;37.560;2023-02-08T11:12:56;8.05;;;4.68;;
33495;SDS011;19836;55.812;37.560;2023-02-08T11:15:26;9.98;;;5.00;;
33495;SDS011;19836;55.812;37.560;2023-02-08T11:17:58;6.40;;;4.90;;
33495;SDS011;19836;55.812;37.560;2023-02-08T11:20:33;5.72;;;4.47;;
33495;SDS011;19836;55.812;37.560;2023-02-08T11:23:03;5.65;;;3.97;;
33495;SDS011;19836;55.812;37.560;2023-02-08T11:25:44;5.97;;;4.55;;
33495;SDS011;19836;55.812;37.560;2023-02-08T11:32:01;7.78;;;4.15;;
33495;SDS011;19836;55.812;37.560;2023-02-08T11:34:40;7.30;;;3.97;;
33495;SDS011;19836;55.812;37.560;2023-02-08T11:37:13;6.50;;;4.93;;
33495;SDS011;19836;55.812;37.560;2023-02-08T11:39:50;5.70;;;3.88;;
33495;SDS011;19836;55.812;37.560;2023-02-08T11:42:30;5.60;;;4.30;;
33495;SDS011;19836;55.812;37.560;2023-02-08T11:45:01;6.80;;;4.40;;
33495;SDS011;19836;55.812;37.560;2023-02-08T11:47:29;7.28;;;5.07;;
33495;SDS011;19836;55.812;37.560;2023-02-08T11:49:59;9.90;;;4.40;;
33495;SDS011;19836;55.812;37.560;2023-02-08T11:52:29;5.88;;;4.68;;
33495;SDS011;19836;55.812;37.560;2023-02-08T11:55:12;4.10;;;3.47;;
33495;SDS011;19836;55.812;37.560;2023-02-08T11:57:57;6.45;;;4.75;;
33495;SDS011;19836;55.812;37.560;2023-02-08T12:01:35;8.00;;;4.60;;
33495;SDS011;19836;55.812;37.560;2023-02-08T12:04:04;6.03;;;4.03;;
33495;SDS011;19836;55.812;37.560;2023-02-08T12:06:37;6.25;;;3.83;;
33495;SDS011;19836;55.812;37.560;2023-02-08T12:14:59;5.78;;;3.70;;
33495;SDS011;19836;55.812;37.560;2023-02-08T12:44:14;6.45;;;4.15;;
33495;SDS011;19836;55.812;37.560;2023-02-08T12:50:07;5.97;;;4.53;;
33495;SDS011;19836;55.812;37.560;2023-02-08T12:52:47;7.05;;;4.13;;
33495;SDS011;19836;55.812;37.560;2023-02-08T12:57:49;3.63;;;2.97;;
33495;SDS011;19836;55.812;37.560;2023-02-08T13:00:22;4.05;;;2.58;;
33495;SDS011;19836;55.812;37.560;2023-02-08T13:06:02;5.22;;;3.42;;
33495;SDS011;19836;55.812;37.560;2023-02-08T13:08:33;5.45;;;4.05;;
33495;SDS011;19836;55.812;37.560;2023-02-08T13:14:11;6.72;;;4.20;;
33495;SDS011;19836;55.812;37.560;2023-02-08T13:16:48;5.55;;;4.30;;
33495;SDS011;19836;55.812;37.560;2023-02-08T13:19:26;5.53;;;4.38;;
33495;SDS011;19836;55.812;37.560;2023-02-08T13:22:12;5.60;;;4.20;;
33495;SDS011;19836;55.812;37.560;2023-02-08T13:24:41;6.97;;;4.90;;
33495;SDS011;19836;55.812;37.560;2023-02-08T13:27:10;6.40;;;4.32;;
33495;SDS011;19836;55.812;37.560;2023-02-08T13:29:41;5.50;;;4.38;;
33495;SDS011;19836;55.812;37.560;2023-02-08T13:34:44;4.53;;;2.83;;
33495;SDS011;19836;55.812;37.560;2023-02-08T13:37:18;5.10;;;4.05;;
33495;SDS011;19836;55.812;37.560;2023-02-08T13:39:46;7.97;;;4.32;;
33495;SDS011;19836;55.812;37.560;2023-02-08T13:42:47;4.57;;;3.70;;
33495;SDS011;19836;55.812;37.560;2023-02-08T13:45:08;3.65;;;2.55;;
33495;SDS011;19836;55.812;37.560;2023-02-08T13:47:48;6.32;;;4.43;;
33495;SDS011;19836;55.812;37.560;2023-02-08T13:54:16;3.53;;;2.60;;
33495;SDS011;19836;55.812;37.560;2023-02-08T14:05:43;5.78;;;3.85;;
33495;SDS011;19836;55.812;37.560;2023-02-08T14:08:21;6.47;;;4.00;;
33495;SDS011;19836;55.812;37.560;2023-02-08T14:11:01;5.00;;;3.38;;
33495;SDS011;19836;55.812;37.560;2023-02-08T14:13:45;7.07;;;4.28;;
33495;SDS011;19836;55.812;37.560;2023-02-08T14:16:32;2.58;;;2.10;;
33495;SDS011;19836;55.812;37.560;2023-02-08T14:19:01;5.70;;;4.35;;
33495;SDS011;19836;55.812;37.560;2023-02-08T14:21:36;5.10;;;3.50;;
33495;SDS011;19836;55.812;37.560;2023-02-08T14:24:04;5.30;;;3.92;;
33495;SDS011;19836;55.812;37.560;2023-02-08T14:26:34;6.43;;;4.00;;
33495;SDS011;19836;55.812;37.560;2023-02-08T14:29:02;5.72;;;3.85;;
33495;SDS011;19836;55.812;37.560;2023-02-08T14:31:34;6.55;;;4.60;;
33495;SDS011;19836;55.812;37.560;2023-02-08T14:34:05;5.38;;;3.58;;
33495;SDS011;19836;55.812;37.560;2023-02-08T14:37:35;5.72;;;3.40;;
33495;SDS011;19836;55.812;37.560;2023-02-08T14:45:45;3.90;;;2.45;;
33495;SDS011;19836;55.812;37.560;2023-02-08T14:48:15;6.38;;;4.47;;
33495;SDS011;19836;55.812;37.560;2023-02-08T14:56:54;7.65;;;4.88;;
33495;SDS011;19836;55.812;37.560;2023-02-08T14:59:31;4.95;;;4.05;;
33495;SDS011;19836;55.812;37.560;2023-02-08T15:02:08;7.32;;;4.20;;
33495;SDS011;19836;55.812;37.560;2023-02-08T15:04:43;5.88;;;4.15;;
33495;SDS011;19836;55.812;37.560;2023-02-08T15:09:36;4.38;;;3.67;;
33495;SDS011;19836;55.812;37.560;2023-02-08T15:14:43;5.47;;;4.05;;
33495;SDS011;19836;55.812;37.560;2023-02-08T15:17:20;4.93;;;3.88;;
33495;SDS011;19836;55.812;37.560;2023-02-08T15:19:51;5.28;;;3.45;;
33495;SDS011;19836;55.812;37.560;2023-02-08T15:24:52;5.32;;;3.17;;
33495;SDS011;19836;55.812;37.560;2023-02-08T15:27:25;6.00;;;4.10;;
33495;SDS011;19836;55.812;37.560;2023-02-08T15:29:56;4.88;;;3.85;;
33495;SDS011;19836;55.812;37.560;2023-02-08T15:32:24;5.65;;;3.95;;
33495;SDS011;19836;55.812;37.560;2023-02-08T15:34:53;5.47;;;4.18;;
33495;SDS011;19836;55.812;37.560;2023-02-08T15:37:21;6.25;;;4.03;;
33495;SDS011;19836;55.812;37.560;2023-02-08T15:39:56;5.53;;;3.70;;
33495;SDS011;19836;55.812;37.560;2023-02-08T15:42:28;7.40;;;4.32;;
33495;SDS011;19836;55.812;37.560;2023-02-08T15:44:56;3.42;;;2.60;;
33495;SDS011;19836;55.812;37.560;2023-02-08T15:47:29;5.13;;;3.80;;
33495;SDS011;19836;55.812;37.560;2023-02-08T15:49:57;5.82;;;3.90;;
33495;SDS011;19836;55.812;37.560;2023-02-08T15:52:26;4.53;;;3.45;;
33495;SDS011;19836;55.812;37.560;2023-02-08T15:54:54;4.53;;;3.35;;
33495;SDS011;19836;55.812;37.560;2023-02-08T16:00:04;5.32;;;3.75;;
33495;SDS011;19836;55.812;37.560;2023-02-08T16:02:37;4.63;;;3.28;;
33495;SDS011;19836;55.812;37.560;2023-02-08T16:08:01;4.95;;;3.58;;
33495;SDS011;19836;55.812;37.560;2023-02-08T16:13:13;7.07;;;3.92;;
33495;SDS011;19836;55.812;37.560;2023-02-08T16:15:45;4.55;;;3.20;;
33495;SDS011;19836;55.812;37.560;2023-02-08T16:18:32;5.10;;;3.70;;
33495;SDS011;19836;55.812;37.560;2023-02-08T16:26:45;4.90;;;3.60;;
33495;SDS011;19836;55.812;37.560;2023-02-08T16:29:28;5.40;;;4.00;;
33495;SDS011;19836;55.812;37.560;2023-02-08T16:32:07;7.15;;;4.35;;
33495;SDS011;19836;55.812;37.560;2023-02-08T16:34:45;4.97;;;3.83;;
33495;SDS011;19836;55.812;37.560;2023-02-08T16:37:33;3.67;;;2.38;;
33495;SDS011;19836;55.812;37.560;2023-02-08T16:39:59;6.55;;;4.47;;
33495;SDS011;19836;55.812;37.560;2023-02-08T16:42:32;6.03;;;4.20;;
33495;SDS011;19836;55.812;37.560;2023-02-08T16:45:09;5.28;;;4.18;;
33495;SDS011;19836;55.812;37.560;2023-02-08T16:47:39;8.35;;;4.72;;
33495;SDS011;19836;55.812;37.560;2023-02-08T16:50:11;5.10;;;4.03;;
33495;SDS011;19836;55.812;37.560;2023-02-08T16:55:29;5.35;;;4.22;;
33495;SDS011;19836;55.812;37.560;2023-02-08T16:57:57;5.53;;;4.00;;
33495;SDS011;19836;55.812;37.560;2023-02-08T17:00:25;4.40;;;3.78;;
33495;SDS011;19836;55.812;37.560;2023-02-08T17:02:54;3.38;;;2.33;;
33495;SDS011;19836;55.812;37.560;2023-02-08T17:05:22;4.03;;;3.20;;
33495;SDS011;19836;55.812;37.560;2023-02-08T17:07:49;3.92;;;3.30;;
33495;SDS011;19836;55.812;37.560;2023-02-08T17:10:26;3.92;;;3.10;;
33495;SDS011;19836;55.812;37.560;2023-02-08T17:12:55;6.35;;;4.90;;
33495;SDS011;19836;55.812;37.560;2023-02-08T17:15:23;4.90;;;3.55;;
33495;SDS011;19836;55.812;37.560;2023-02-08T17:17:52;5.28;;;3.67;;
33495;SDS011;19836;55.812;37.560;2023-02-08T17:20:25;4.10;;;3.38;;
33495;SDS011;19836;55.812;37.560;2023-02-08T17:22:58;4.70;;;2.97;;
33495;SDS011;19836;55.812;37.560;2023-02-08T17:25:31;5.10;;;3.72;;
33495;SDS011;19836;55.812;37.560;2023-02-08T17:28:00;4.80;;;3.30;;
33495;SDS011;19836;55.812;37.560;2023-02-08T17:30:30;2.80;;;2.25;;
33495;SDS011;19836;55.812;37.560;2023-02-08T17:32:58;4.72;;;3.17;;
33495;SDS011;19836;55.812;37.560;2023-02-08T17:35:24;4.68;;;3.67;;
33495;SDS011;19836;55.812;37.560;2023-02-08T17:37:53;5.72;;;3.33;;
33495;SDS011;19836;55.812;37.560;2023-02-08T17:40:21;3.45;;;2.75;;
33495;SDS011;19836;55.812;37.560;2023-02-08T17:42:51;3.65;;;3.17;;
33495;SDS011;19836;55.812;37.560;2023-02-08T17:45:18;3.47;;;3.17;;
33495;SDS011;19836;55.812;37.560;2023-02-08T17:47:44;4.15;;;3.72;;
33495;SDS011;19836;55.812;37.560;2023-02-08T17:50:11;3.90;;;2.75;;
33495;SDS011;19836;55.812;37.560;2023-02-08T17:52:39;4.03;;;3.28;;
33495;SDS011;19836;55.812;37.560;2023-02-08T17:55:06;5.78;;;4.00;;
33495;SDS011;19836;55.812;37.560;2023-02-08T17:57:34;4.53;;;3.28;;
33495;SDS011;19836;55.812;37.560;2023-02-08T18:00:08;5.25;;;3.90;;
33495;SDS011;19836;55.812;37.560;2023-02-08T18:02:45;7.35;;;5.05;;
33495;SDS011;19836;55.812;37.560;2023-02-08T18:05:15;4.40;;;3.50;;
33495;SDS011;19836;55.812;37.560;2023-02-08T18:07:42;4.68;;;3.55;;
33495;SDS011;19836;55.812;37.560;2023-02-08T18:10:09;3.80;;;3.20;;